createdAt,value
2017-01-26T00:00:34.734Z,2.81
2017-01-26T00:01:34.710Z,2.78
2017-01-26T00:02:34.730Z,2.77
2017-01-26T00:03:34.743Z,2.81
2017-01-26T00:04:34.783Z,2.89
2017-01-26T00:05:34.775Z,2.84
2017-01-26T00:06:34.789Z,2.82
2017-01-26T00:07:34.806Z,2.82
2017-01-26T00:08:34.825Z,2.72
2017-01-26T00:09:34.838Z,2.78
2017-01-26T00:10:34.855Z,2.77
2017-01-26T00:11:34.870Z,2.84
2017-01-26T00:12:34.884Z,2.84
2017-01-26T00:13:34.914Z,2.79
2017-01-26T00:14:34.916Z,2.82
2017-01-26T00:15:34.956Z,2.74
2017-01-26T00:16:34.948Z,2.78
2017-01-26T00:17:34.963Z,2.79
2017-01-26T00:18:34.980Z,2.84
2017-01-26T00:19:34.994Z,2.74
2017-01-26T00:20:35.013Z,2.81
2017-01-26T00:22:35.040Z,2.81
2017-01-26T00:23:35.058Z,2.84
2017-01-26T00:24:35.075Z,2.74
2017-01-26T00:25:35.088Z,2.87
2017-01-26T00:26:50.022Z,2.82
2017-01-26T00:27:50.076Z,2.92
2017-01-26T00:28:35.136Z,2.85
2017-01-26T00:29:35.150Z,2.92
2017-01-26T00:30:35.166Z,2.89
2017-01-26T00:31:50.122Z,2.92
2017-01-26T00:32:35.195Z,2.9
2017-01-26T00:33:35.217Z,2.78
2017-01-26T00:34:35.229Z,2.85
2017-01-26T00:35:35.245Z,2.87
2017-01-26T00:36:35.267Z,2.77
2017-01-26T00:38:35.288Z,2.77
2017-01-26T00:39:35.310Z,2.67
2017-01-26T00:40:35.322Z,2.77
2017-01-26T00:41:35.338Z,2.77
2017-01-26T00:42:35.352Z,2.77
2017-01-26T00:43:35.756Z,2.78
2017-01-26T00:44:35.387Z,2.75
2017-01-26T00:45:35.400Z,2.78
2017-01-26T00:46:35.416Z,2.72
2017-01-26T00:47:50.352Z,2.82
2017-01-26T00:48:35.451Z,2.81
2017-01-26T00:49:35.469Z,2.77
2017-01-26T00:50:35.779Z,2.69
2017-01-26T00:51:35.498Z,2.67
2017-01-26T00:52:35.511Z,2.74
2017-01-26T00:55:35.557Z,2.81
2017-01-26T00:56:35.574Z,2.82
2017-01-26T00:57:50.506Z,2.77
2017-01-26T00:58:50.522Z,2.82
2017-01-26T00:59:50.537Z,2.72
2017-01-26T01:00:35.636Z,2.77
2017-01-26T01:01:35.649Z,2.71
2017-01-26T01:02:35.664Z,2.72
2017-01-26T01:03:50.601Z,2.69
2017-01-26T01:04:35.708Z,2.66
2017-01-26T01:05:35.711Z,2.77
2017-01-26T01:06:35.731Z,2.77
2017-01-26T01:07:35.744Z,2.77
2017-01-26T01:08:35.762Z,2.85
2017-01-26T01:09:35.779Z,2.92
2017-01-26T01:10:35.791Z,2.84
2017-01-26T01:12:35.820Z,2.85
2017-01-26T01:13:35.839Z,2.81
2017-01-26T01:14:35.856Z,2.9
2017-01-26T01:15:35.871Z,2.84
2017-01-26T01:16:35.886Z,2.72
2017-01-26T01:17:36.320Z,2.84
2017-01-26T01:18:35.917Z,2.82
2017-01-26T01:19:50.852Z,2.85
2017-01-26T01:20:35.951Z,2.85
2017-01-26T01:21:35.962Z,2.89
2017-01-26T01:22:35.979Z,2.85
2017-01-26T01:23:36.027Z,2.84
2017-01-26T01:24:36.013Z,2.81
2017-01-26T01:25:36.023Z,2.85
2017-01-26T01:26:36.039Z,2.79
2017-01-26T01:27:36.059Z,2.84
2017-01-26T01:28:36.071Z,2.82
2017-01-26T01:29:51.007Z,2.89
2017-01-26T01:30:51.021Z,2.85
2017-01-26T01:31:36.121Z,2.82
2017-01-26T01:32:36.135Z,2.84
2017-01-26T01:33:36.150Z,2.97
2017-01-26T01:34:51.083Z,2.82
2017-01-26T01:35:36.182Z,2.82
2017-01-26T01:36:36.197Z,2.87
2017-01-26T01:37:36.241Z,2.79
2017-01-26T01:38:36.230Z,2.75
2017-01-26T01:39:36.247Z,2.74
2017-01-26T01:40:36.265Z,2.79
2017-01-26T01:41:36.273Z,2.81
2017-01-26T01:42:36.309Z,2.81
2017-01-26T01:43:36.307Z,2.81
2017-01-26T01:44:36.327Z,2.84
2017-01-26T01:45:36.339Z,2.87
2017-01-26T01:46:36.353Z,2.77
2017-01-26T01:47:36.370Z,2.75
2017-01-26T01:48:36.385Z,2.71
2017-01-26T01:49:36.401Z,2.81
2017-01-26T01:50:36.417Z,2.84
2017-01-26T01:51:36.459Z,2.72
2017-01-26T01:52:36.446Z,2.77
2017-01-26T01:53:36.464Z,2.77
2017-01-26T01:54:36.477Z,2.82
2017-01-26T01:55:36.502Z,2.79
2017-01-26T01:56:36.509Z,2.78
2017-01-26T01:59:36.557Z,2.85
2017-01-26T02:00:36.572Z,2.84
2017-01-26T02:01:51.505Z,2.81
2017-01-26T02:02:36.601Z,2.78
2017-01-26T02:03:36.620Z,2.82
2017-01-26T02:04:36.638Z,2.84
2017-01-26T02:05:36.652Z,2.82
2017-01-26T02:06:51.969Z,2.74
2017-01-26T02:07:36.686Z,2.78
2017-01-26T02:08:36.697Z,2.75
2017-01-26T02:09:36.710Z,2.72
2017-01-26T02:10:36.727Z,2.75
2017-01-26T02:11:36.760Z,2.79
2017-01-26T02:12:36.761Z,2.69
2017-01-26T02:14:36.796Z,2.74
2017-01-26T02:15:36.806Z,2.61
2017-01-26T02:16:36.819Z,2.71
2017-01-26T02:17:36.842Z,2.69
2017-01-26T02:18:51.769Z,2.72
2017-01-26T02:19:36.868Z,2.71
2017-01-26T02:20:36.885Z,2.61
2017-01-26T02:21:36.904Z,2.57
2017-01-26T02:22:51.830Z,2.61
2017-01-26T02:24:36.945Z,2.67
2017-01-26T02:25:36.960Z,2.54
2017-01-26T02:26:36.979Z,2.57
2017-01-26T02:27:36.989Z,2.71
2017-01-26T02:29:37.051Z,2.72
2017-01-26T02:30:37.041Z,2.6
2017-01-26T02:31:37.055Z,2.63
2017-01-26T02:32:37.068Z,2.6
2017-01-26T02:33:52.003Z,2.56
2017-01-26T02:34:37.101Z,2.59
2017-01-26T02:35:37.117Z,2.66
2017-01-26T02:36:37.132Z,2.69
2017-01-26T02:37:37.146Z,2.69
2017-01-26T02:38:52.077Z,2.71
2017-01-26T02:39:37.188Z,2.69
2017-01-26T02:41:37.209Z,2.63
2017-01-26T02:42:37.230Z,2.74
2017-01-26T02:43:37.239Z,2.59
2017-01-26T02:44:37.256Z,2.54
2017-01-26T02:46:37.286Z,2.6
2017-01-26T02:47:37.307Z,2.56
2017-01-26T02:48:52.236Z,2.59
2017-01-26T02:49:37.358Z,2.54
2017-01-26T02:50:37.349Z,2.61
2017-01-26T02:51:37.362Z,2.59
2017-01-26T02:52:37.377Z,2.49
2017-01-26T02:53:37.396Z,2.49
2017-01-26T02:54:52.330Z,2.48
2017-01-26T02:55:37.425Z,2.42
2017-01-26T02:56:37.445Z,2.46
2017-01-26T02:57:37.455Z,2.38
2017-01-26T02:58:37.504Z,2.36
2017-01-26T03:02:37.533Z,2.43
2017-01-26T03:03:37.547Z,2.52
2017-01-26T03:04:37.564Z,2.45
2017-01-26T03:05:37.581Z,2.45
2017-01-26T03:06:37.593Z,2.53
2017-01-26T03:07:37.608Z,2.48
2017-01-26T03:08:37.627Z,2.48
2017-01-26T03:09:52.558Z,2.54
2017-01-26T03:10:37.657Z,2.49
2017-01-26T03:11:37.671Z,2.49
2017-01-26T03:12:37.684Z,2.46
2017-01-26T03:13:37.701Z,2.42
2017-01-26T03:14:37.718Z,2.46
2017-01-26T03:15:37.730Z,2.48
2017-01-26T03:16:37.744Z,2.53
2017-01-26T03:17:37.763Z,2.36
2017-01-26T03:18:37.779Z,2.35
2017-01-26T03:19:37.790Z,2.43
2017-01-26T03:20:52.725Z,2.35
2017-01-26T03:21:37.828Z,2.41
2017-01-26T03:22:37.836Z,2.39
2017-01-26T03:23:37.860Z,2.43
2017-01-26T03:24:37.868Z,2.38
2017-01-26T03:25:37.882Z,2.34
2017-01-26T03:26:37.899Z,2.43
2017-01-26T03:27:37.918Z,2.42
2017-01-26T03:28:37.929Z,2.38
2017-01-26T03:29:37.946Z,2.48
2017-01-26T03:30:37.963Z,2.48
2017-01-26T03:31:37.975Z,2.35
2017-01-26T03:32:37.992Z,2.2
2017-01-26T03:33:38.047Z,2.31
2017-01-26T03:34:38.032Z,2.21
2017-01-26T03:35:38.036Z,2.18
2017-01-26T03:36:38.055Z,2.17
2017-01-26T03:37:38.066Z,2.18
2017-01-26T03:38:38.085Z,2.25
2017-01-26T03:39:38.098Z,2.2
2017-01-26T03:40:38.117Z,2.28
2017-01-26T03:41:53.046Z,2.36
2017-01-26T03:42:38.144Z,2.31
2017-01-26T03:43:38.162Z,2.31
2017-01-26T03:44:38.172Z,2.25
2017-01-26T03:45:38.189Z,2.3
2017-01-26T03:46:38.205Z,2.31
2017-01-26T03:47:38.218Z,2.35
2017-01-26T03:48:38.238Z,2.3
2017-01-26T03:49:38.249Z,2.27
2017-01-26T03:50:38.264Z,2.34
2017-01-26T03:51:38.279Z,2.35
2017-01-26T03:52:53.213Z,2.27
2017-01-26T03:53:38.309Z,2.27
2017-01-26T03:54:38.328Z,2.25
2017-01-26T03:55:38.337Z,2.27
2017-01-26T03:56:38.357Z,2.31
2017-01-26T03:57:53.292Z,2.28
2017-01-26T03:58:38.386Z,2.38
2017-01-26T03:59:38.400Z,2.34
2017-01-26T04:00:38.419Z,2.3
2017-01-26T04:01:38.429Z,2.34
2017-01-26T04:02:38.476Z,2.31
2017-01-26T04:03:38.466Z,2.38
2017-01-26T04:05:38.494Z,2.31
2017-01-26T04:06:38.510Z,2.35
2017-01-26T04:07:53.444Z,2.31
2017-01-26T04:08:53.455Z,2.28
2017-01-26T04:09:53.470Z,2.3
2017-01-26T04:10:38.571Z,2.31
2017-01-26T04:11:38.612Z,2.28
2017-01-26T04:12:38.598Z,2.27
2017-01-26T04:13:53.531Z,2.23
2017-01-26T04:14:38.632Z,2.34
2017-01-26T04:15:38.644Z,2.36
2017-01-26T04:16:38.661Z,2.28
2017-01-26T04:18:38.715Z,2.31
2017-01-26T04:19:38.703Z,2.21
2017-01-26T04:20:38.730Z,2.23
2017-01-26T04:22:38.750Z,2.23
2017-01-26T04:23:38.764Z,2.1
2017-01-26T04:24:53.699Z,2.1
2017-01-26T04:25:38.799Z,2.14
2017-01-26T04:26:38.810Z,2.12
2017-01-26T04:27:38.829Z,2.05
2017-01-26T04:28:38.839Z,1.98
2017-01-26T04:29:53.774Z,2.02
2017-01-26T04:30:38.871Z,1.98
2017-01-26T04:31:38.888Z,1.93
2017-01-26T04:32:38.905Z,1.81
2017-01-26T04:33:38.918Z,1.73
2017-01-26T04:35:38.947Z,1.72
2017-01-26T04:36:38.963Z,1.7
2017-01-26T04:37:38.982Z,1.63
2017-01-26T04:38:38.997Z,1.6
2017-01-26T04:39:39.007Z,1.62
2017-01-26T04:40:53.941Z,1.48
2017-01-26T04:41:39.038Z,1.45
2017-01-26T04:42:39.057Z,1.42
2017-01-26T04:43:39.069Z,1.47
2017-01-26T04:44:54.003Z,1.48
2017-01-26T04:45:39.108Z,1.41
2017-01-26T04:46:39.113Z,1.36
2017-01-26T04:47:39.130Z,1.3
2017-01-26T04:48:39.144Z,1.34
2017-01-26T04:49:39.162Z,1.32
2017-01-26T04:50:39.177Z,1.41
2017-01-26T04:51:39.219Z,1.4
2017-01-26T04:52:39.205Z,1.22
2017-01-26T04:53:39.247Z,1.27
2017-01-26T04:54:39.234Z,1.22
2017-01-26T04:55:39.248Z,1.2
2017-01-26T04:56:39.265Z,1.14
2017-01-26T04:57:54.197Z,1.08
2017-01-26T04:59:39.309Z,1.14
2017-01-26T05:00:39.327Z,1.16
2017-01-26T05:01:39.338Z,1.2
2017-01-26T05:02:39.358Z,1.05
2017-01-26T05:03:39.371Z,1.11
2017-01-26T05:04:39.385Z,1.15
2017-01-26T05:05:39.434Z,1.04
2017-01-26T05:06:39.444Z,1.16
2017-01-26T05:07:39.438Z,1.11
2017-01-26T05:08:39.446Z,1.05
2017-01-26T05:09:39.460Z,1.12
2017-01-26T05:11:39.491Z,0.97
2017-01-26T05:12:39.502Z,0.87
2017-01-26T05:13:39.516Z,1.02
2017-01-26T05:14:39.533Z,0.97
2017-01-26T05:15:39.547Z,1.02
2017-01-26T05:16:54.507Z,0.87
2017-01-26T05:17:39.577Z,0.86
2017-01-26T05:18:39.594Z,0.69
2017-01-26T05:19:39.609Z,0.86
2017-01-26T05:20:39.626Z,0.88
2017-01-26T05:21:39.641Z,0.86
2017-01-26T05:22:39.680Z,0.72
2017-01-26T05:23:39.672Z,0.78
2017-01-26T05:24:39.682Z,0.75
2017-01-26T05:26:39.737Z,0.76
2017-01-26T05:27:39.725Z,0.72
2017-01-26T05:28:39.743Z,0.78
2017-01-26T05:29:39.759Z,0.72
2017-01-26T05:30:39.768Z,0.58
2017-01-26T05:31:39.784Z,0.61
2017-01-26T05:32:54.717Z,0.69
2017-01-26T05:33:39.813Z,0.69
2017-01-26T05:34:39.830Z,0.68
2017-01-26T05:35:39.841Z,0.65
2017-01-26T05:36:39.863Z,0.73
2017-01-26T05:37:39.874Z,0.7
2017-01-26T05:38:39.889Z,0.66
2017-01-26T05:39:39.899Z,0.73
2017-01-26T05:40:39.916Z,0.78
2017-01-26T05:41:39.934Z,0.8
2017-01-26T05:42:39.942Z,0.88
2017-01-26T05:43:39.961Z,0.86
2017-01-26T05:44:39.975Z,0.86
2017-01-26T05:45:54.905Z,0.93
2017-01-26T05:46:40.006Z,0.84
2017-01-26T05:47:40.017Z,0.9
2017-01-26T05:48:54.951Z,0.86
2017-01-26T05:49:40.046Z,0.87
2017-01-26T05:50:40.063Z,0.86
2017-01-26T05:51:40.093Z,0.88
2017-01-26T05:52:40.088Z,0.97
2017-01-26T05:53:40.108Z,0.91
2017-01-26T05:54:40.120Z,0.97
2017-01-26T05:55:40.133Z,0.98
2017-01-26T05:56:40.149Z,1
2017-01-26T05:57:40.163Z,1.02
2017-01-26T05:58:40.179Z,1.04
2017-01-26T05:59:40.199Z,1.11
2017-01-26T06:00:40.208Z,0.96
2017-01-26T06:01:40.222Z,1.05
2017-01-26T06:02:40.264Z,1
2017-01-26T06:03:40.252Z,1.05
2017-01-26T06:04:55.184Z,1.04
2017-01-26T06:05:40.283Z,1.09
2017-01-26T06:06:40.397Z,1.06
2017-01-26T06:07:40.310Z,1.04
2017-01-26T06:08:40.324Z,1.14
2017-01-26T06:10:40.355Z,1.18
2017-01-26T06:11:40.369Z,1.16
2017-01-26T06:12:40.387Z,1.15
2017-01-26T06:13:40.402Z,1.16
2017-01-26T06:14:40.412Z,1.14
2017-01-26T06:15:40.434Z,1.14
2017-01-26T06:16:55.360Z,1.09
2017-01-26T06:18:40.476Z,1.09
2017-01-26T06:19:55.404Z,1.14
2017-01-26T06:20:40.501Z,1.3
2017-01-26T06:21:40.516Z,1.29
2017-01-26T06:22:40.531Z,1.27
2017-01-26T06:23:40.546Z,1.27
2017-01-26T06:24:40.561Z,1.3
2017-01-26T06:26:40.589Z,1.2
2017-01-26T06:27:40.605Z,1.22
2017-01-26T06:28:55.539Z,1.18
2017-01-26T06:29:40.635Z,1.2
2017-01-26T06:30:55.566Z,1.15
2017-01-26T06:31:40.664Z,1.15
2017-01-26T06:32:55.595Z,1.12
2017-01-26T06:33:40.694Z,1.2
2017-01-26T06:34:40.714Z,1.16
2017-01-26T06:35:40.720Z,1.18
2017-01-26T06:36:40.738Z,1.2
2017-01-26T06:37:40.755Z,1.26
2017-01-26T06:38:40.764Z,1.2
2017-01-26T06:39:40.781Z,1.2
2017-01-26T06:40:40.795Z,1.15
2017-01-26T06:41:40.811Z,1.11
2017-01-26T06:42:40.826Z,1.08
2017-01-26T06:43:40.843Z,1.12
2017-01-26T06:44:40.853Z,1.14
2017-01-26T06:45:40.871Z,1.18
2017-01-26T06:46:40.885Z,1.24
2017-01-26T06:47:40.901Z,1.14
2017-01-26T06:48:40.916Z,1.12
2017-01-26T06:49:40.933Z,1.23
2017-01-26T06:50:40.941Z,1.24
2017-01-26T06:51:55.874Z,1.14
2017-01-26T06:52:40.972Z,1.23
2017-01-26T06:53:40.984Z,1.26
2017-01-26T06:54:41.002Z,1.24
2017-01-26T06:55:41.048Z,1.16
2017-01-26T06:56:41.028Z,1.12
2017-01-26T06:58:41.112Z,1.36
2017-01-26T07:00:41.106Z,1.33
2017-01-26T07:01:41.103Z,1.42
2017-01-26T07:02:41.117Z,1.36
2017-01-26T07:03:41.133Z,1.37
2017-01-26T07:04:41.147Z,1.42
2017-01-26T07:05:41.168Z,1.47
2017-01-26T07:06:41.175Z,1.41
2017-01-26T07:07:56.108Z,1.45
2017-01-26T07:08:41.206Z,1.48
2017-01-26T07:09:41.248Z,1.45
2017-01-26T07:10:41.234Z,1.52
2017-01-26T07:12:41.264Z,1.4
2017-01-26T07:15:41.308Z,1.45
2017-01-26T07:17:56.257Z,1.44
2017-01-26T07:18:56.271Z,1.42
2017-01-26T07:19:41.371Z,1.41
2017-01-26T07:20:41.384Z,1.45
2017-01-26T07:21:41.397Z,1.54
2017-01-26T07:22:41.412Z,1.59
2017-01-26T07:23:56.343Z,1.58
2017-01-26T07:24:41.827Z,1.58
2017-01-26T07:25:41.457Z,1.52
2017-01-26T07:26:41.470Z,1.68
2017-01-26T07:28:41.501Z,1.52
2017-01-26T07:29:41.516Z,1.54
2017-01-26T07:30:41.530Z,1.66
2017-01-26T07:31:41.546Z,1.65
2017-01-26T07:32:41.567Z,1.59
2017-01-26T07:33:41.574Z,1.59
2017-01-26T07:34:41.589Z,1.58
2017-01-26T07:35:56.522Z,1.6
2017-01-26T07:36:41.618Z,1.55
2017-01-26T07:37:41.635Z,1.58
2017-01-26T07:38:41.651Z,1.58
2017-01-26T07:39:56.583Z,1.59
2017-01-26T07:40:41.681Z,1.59
2017-01-26T07:41:41.696Z,1.55
2017-01-26T07:42:41.715Z,1.58
2017-01-26T07:43:41.725Z,1.55
2017-01-26T07:44:41.747Z,1.6
2017-01-26T07:45:41.758Z,1.59
2017-01-26T07:46:41.775Z,1.52
2017-01-26T07:48:41.803Z,1.62
2017-01-26T07:49:41.820Z,1.6
2017-01-26T07:50:41.832Z,1.59
2017-01-26T07:51:41.849Z,1.66
2017-01-26T07:52:41.861Z,1.79
2017-01-26T07:53:41.880Z,1.76
2017-01-26T07:54:56.812Z,1.77
2017-01-26T07:55:41.909Z,1.77
2017-01-26T07:56:41.926Z,1.83
2017-01-26T07:57:41.942Z,1.8
2017-01-26T07:58:41.955Z,1.87
2017-01-26T07:59:41.970Z,1.87
2017-01-26T08:00:41.991Z,1.83
2017-01-26T08:01:41.999Z,1.87
2017-01-26T08:02:42.017Z,1.95
2017-01-26T08:03:42.031Z,1.99
2017-01-26T08:04:42.057Z,1.98
2017-01-26T08:05:42.064Z,2.03
2017-01-26T08:06:42.082Z,2.03
2017-01-26T08:07:42.098Z,1.99
2017-01-26T08:08:42.110Z,2.07
2017-01-26T08:09:42.126Z,2.05
2017-01-26T08:10:42.139Z,2.06
2017-01-26T08:11:42.154Z,2.02
2017-01-26T08:12:42.169Z,2
2017-01-26T08:13:42.188Z,1.98
2017-01-26T08:14:42.201Z,2.02
2017-01-26T08:15:42.216Z,2.03
2017-01-26T08:16:42.229Z,2.1
2017-01-26T08:17:42.249Z,2.12
2017-01-26T08:19:42.280Z,2.14
2017-01-26T08:20:42.296Z,2.09
2017-01-26T08:21:42.310Z,2.18
2017-01-26T08:22:57.243Z,2.25
2017-01-26T08:23:42.342Z,2.21
2017-01-26T08:24:42.358Z,2.25
2017-01-26T08:25:42.373Z,2.3
2017-01-26T08:26:57.307Z,2.34
2017-01-26T08:27:42.405Z,2.31
2017-01-26T08:28:42.418Z,2.31
2017-01-26T08:29:42.436Z,2.24
2017-01-26T08:30:42.450Z,2.35
2017-01-26T08:31:42.472Z,2.3
2017-01-26T08:33:42.496Z,2.41
2017-01-26T08:34:42.515Z,2.38
2017-01-26T08:35:42.533Z,2.43
2017-01-26T08:36:42.548Z,2.52
2017-01-26T08:37:57.481Z,2.59
2017-01-26T08:38:42.589Z,2.67
2017-01-26T08:39:42.597Z,2.66
2017-01-26T08:40:42.610Z,2.79
2017-01-26T08:41:57.576Z,2.84
2017-01-26T08:42:57.561Z,2.96
2017-01-26T08:43:42.662Z,2.89
2017-01-26T08:44:42.679Z,2.87
2017-01-26T08:45:42.700Z,2.82
2017-01-26T08:46:42.714Z,2.77
2017-01-26T08:47:42.726Z,2.79
2017-01-26T08:48:42.743Z,2.81
2017-01-26T08:49:42.762Z,2.89
2017-01-26T08:50:42.777Z,2.87
2017-01-26T08:51:42.791Z,2.89
2017-01-26T08:52:57.728Z,2.93
2017-01-26T08:53:57.744Z,2.96
2017-01-26T08:54:42.842Z,2.92
2017-01-26T08:55:42.860Z,2.79
2017-01-26T08:56:42.875Z,2.81
2017-01-26T08:57:42.892Z,2.77
2017-01-26T08:58:57.824Z,2.92
2017-01-26T08:59:42.927Z,2.93
2017-01-26T09:00:42.945Z,2.95
2017-01-26T09:01:42.962Z,3.08
2017-01-26T09:02:42.974Z,3.03
2017-01-26T09:03:42.991Z,3.11
2017-01-26T09:04:43.008Z,3.15
2017-01-26T09:05:43.025Z,3.15
2017-01-26T09:06:43.341Z,3.17
2017-01-26T09:07:43.059Z,3.14
2017-01-26T09:08:43.078Z,3.15
2017-01-26T09:09:43.089Z,3.17
2017-01-26T09:10:58.025Z,3.15
2017-01-26T09:11:43.132Z,3.14
2017-01-26T09:12:43.142Z,3.17
2017-01-26T09:13:43.156Z,3.17
2017-01-26T09:14:58.093Z,3.08
2017-01-26T09:15:43.193Z,3.1
2017-01-26T09:16:43.208Z,3.05
2017-01-26T09:17:43.232Z,3.08
2017-01-26T09:18:43.247Z,3.18
2017-01-26T09:19:43.260Z,3.21
2017-01-26T09:21:43.288Z,3.13
2017-01-26T09:22:43.311Z,3.08
2017-01-26T09:23:43.326Z,3.2
2017-01-26T09:24:43.340Z,3.13
2017-01-26T09:25:43.359Z,3.14
2017-01-26T09:26:43.372Z,3.2
2017-01-26T09:27:43.387Z,3.15
2017-01-26T09:28:43.406Z,3.15
2017-01-26T09:29:58.344Z,3.05
2017-01-26T09:30:43.439Z,3.05
2017-01-26T09:31:43.456Z,3.02
2017-01-26T09:32:43.470Z,3.05
2017-01-26T09:33:43.492Z,3.08
2017-01-26T09:34:43.531Z,3
2017-01-26T09:35:43.521Z,3.08
2017-01-26T09:36:43.541Z,3.03
2017-01-26T09:37:43.553Z,3.03
2017-01-26T09:38:43.571Z,2.99
2017-01-26T09:39:43.586Z,2.9
2017-01-26T09:40:43.606Z,2.97
2017-01-26T09:41:43.619Z,3.11
2017-01-26T09:42:43.639Z,3.17
2017-01-26T09:43:43.655Z,3.15
2017-01-26T09:44:43.668Z,3.15
2017-01-26T09:45:43.690Z,3.18
2017-01-26T09:46:43.703Z,3.18
2017-01-26T09:47:43.722Z,3.18
2017-01-26T09:48:43.743Z,3.33
2017-01-26T09:49:43.757Z,3.39
2017-01-26T09:50:58.694Z,3.26
2017-01-26T09:51:43.786Z,3.14
2017-01-26T09:52:43.805Z,3.14
2017-01-26T09:54:43.848Z,3.02
2017-01-26T09:55:43.851Z,3
2017-01-26T09:56:43.874Z,3.02
2017-01-26T09:57:43.884Z,2.97
2017-01-26T09:58:43.907Z,2.9
2017-01-26T09:59:43.925Z,2.99
2017-01-26T10:00:43.936Z,2.96
2017-01-26T10:01:58.871Z,2.92
2017-01-26T10:02:43.968Z,2.97
2017-01-26T10:03:43.986Z,2.9
2017-01-26T10:04:44.003Z,2.93
2017-01-26T10:06:44.041Z,3.08
2017-01-26T10:07:44.051Z,3.17
2017-01-26T10:08:44.070Z,3.08
2017-01-26T10:10:44.102Z,3.18
2017-01-26T10:11:44.117Z,3.17
2017-01-26T10:12:59.053Z,3.15
2017-01-26T10:13:59.069Z,3.11
2017-01-26T10:14:44.170Z,3.11
2017-01-26T10:15:44.188Z,3.18
2017-01-26T10:16:44.199Z,3.21
2017-01-26T10:17:59.169Z,3.11
2017-01-26T10:18:44.234Z,3.13
2017-01-26T10:19:44.282Z,3.11
2017-01-26T10:20:44.268Z,3.05
2017-01-26T10:21:44.288Z,3.13
2017-01-26T10:22:44.302Z,3.11
2017-01-26T10:25:59.273Z,3.13
2017-01-26T10:26:44.377Z,3.11
2017-01-26T10:27:44.393Z,3.17
2017-01-26T10:28:59.320Z,3.24
2017-01-26T10:29:44.425Z,3.35
2017-01-26T10:30:59.352Z,3.32
2017-01-26T10:31:44.702Z,3.36
2017-01-26T10:32:44.468Z,3.42
2017-01-26T10:33:59.402Z,3.32
2017-01-26T10:34:44.511Z,3.33
2017-01-26T10:35:44.518Z,3.4
2017-01-26T10:36:44.537Z,3.33
2017-01-26T10:37:44.553Z,3.5
2017-01-26T10:38:44.569Z,3.51
2017-01-26T10:39:44.585Z,3.51
2017-01-26T10:40:44.600Z,3.4
2017-01-26T10:41:44.619Z,3.5
2017-01-26T10:42:44.637Z,3.55
2017-01-26T10:43:44.655Z,3.47
2017-01-26T10:44:44.667Z,3.57
2017-01-26T10:45:44.687Z,3.57
2017-01-26T10:46:44.703Z,3.75
2017-01-26T10:47:44.722Z,3.87
2017-01-26T10:48:44.736Z,3.91
2017-01-26T10:49:59.672Z,4.06
2017-01-26T10:50:44.769Z,4.06
2017-01-26T10:51:44.787Z,4.06
2017-01-26T10:52:44.808Z,4.12
2017-01-26T10:53:45.205Z,4.27
2017-01-26T10:54:44.836Z,4.22
2017-01-26T10:55:44.852Z,4.27
2017-01-26T10:56:44.870Z,4.23
2017-01-26T10:57:44.912Z,4.3
2017-01-26T10:58:44.905Z,4.4
2017-01-26T10:59:44.919Z,4.36
2017-01-26T11:00:44.939Z,4.48
2017-01-26T11:01:44.956Z,4.37
2017-01-26T11:02:44.971Z,4.22
2017-01-26T11:03:44.991Z,4.05
2017-01-26T11:04:59.925Z,4.02
2017-01-26T11:05:45.025Z,4.08
2017-01-26T11:06:45.042Z,4.02
2017-01-26T11:07:45.055Z,3.9
2017-01-26T11:08:45.077Z,3.79
2017-01-26T11:09:45.100Z,3.9
2017-01-26T11:10:45.131Z,3.79
2017-01-26T11:11:45.125Z,3.7
2017-01-26T11:13:45.158Z,3.78
2017-01-26T11:14:45.174Z,3.76
2017-01-26T11:15:45.192Z,3.88
2017-01-26T11:16:45.209Z,3.78
2017-01-26T11:17:45.227Z,3.86
2017-01-26T11:18:45.240Z,3.98
2017-01-26T11:19:45.263Z,3.96
2017-01-26T11:21:45.298Z,4.29
2017-01-26T11:22:45.309Z,4.22
2017-01-26T11:23:45.357Z,4.2
2017-01-26T11:24:45.342Z,4.08
2017-01-26T11:25:45.359Z,4.16
2017-01-26T11:26:45.376Z,4.15
2017-01-26T11:27:45.397Z,4.12
2017-01-26T11:28:45.413Z,4.23
2017-01-26T11:29:45.427Z,4.15
2017-01-26T11:30:45.444Z,4.2
2017-01-26T11:31:45.765Z,4.22
2017-01-26T11:33:00.396Z,4.36
2017-01-26T11:33:45.495Z,4.4
2017-01-26T11:34:45.520Z,4.47
2017-01-26T11:35:45.529Z,4.44
2017-01-26T11:37:00.852Z,4.54
2017-01-26T11:37:45.564Z,4.45
2017-01-26T11:39:05.487Z,4.54
2017-01-26T11:39:50.498Z,4.54
2017-01-26T11:40:50.516Z,4.63
2017-01-26T11:41:50.540Z,4.41
2017-01-26T11:42:50.552Z,4.34
2017-01-26T11:43:50.568Z,4.36
2017-01-26T11:44:50.584Z,4.2
2017-01-26T11:45:50.602Z,4.14
2017-01-26T11:46:50.622Z,4.3
2017-01-26T11:47:50.639Z,4.33
2017-01-26T11:49:05.574Z,4.47
2017-01-26T11:49:50.671Z,4.48
2017-01-26T11:50:50.687Z,4.55
2017-01-26T11:51:50.704Z,4.6
2017-01-26T11:52:50.720Z,4.62
2017-01-26T11:53:50.737Z,4.72
2017-01-26T11:55:50.773Z,4.7
2017-01-26T11:57:50.809Z,4.59
2017-01-26T11:58:50.824Z,4.69
2017-01-26T11:59:50.902Z,4.73
2017-01-26T12:00:50.857Z,4.72
2017-01-26T12:01:50.877Z,4.91
2017-01-26T12:02:50.892Z,5.1
2017-01-26T12:04:05.830Z,5.13
2017-01-26T12:04:50.929Z,5.17
2017-01-26T12:05:50.949Z,5.3
2017-01-26T12:06:50.963Z,5.33
2017-01-26T12:07:50.983Z,5.31
2017-01-26T12:09:51.018Z,5.33
2017-01-26T12:10:51.034Z,5.27
2017-01-26T12:11:51.051Z,5.42
2017-01-26T12:12:51.070Z,5.4
2017-01-26T12:13:51.083Z,5.43
2017-01-26T12:15:06.021Z,5.48
2017-01-26T12:16:06.038Z,5.45
2017-01-26T12:16:51.138Z,5.45
2017-01-26T12:17:51.155Z,5.4
2017-01-26T12:18:51.174Z,5.39
2017-01-26T12:19:51.191Z,5.25
2017-01-26T12:20:51.210Z,5.48
2017-01-26T12:21:51.231Z,5.36
2017-01-26T12:22:51.246Z,5.28
2017-01-26T12:23:51.260Z,5.36
2017-01-26T12:24:51.278Z,5.4
2017-01-26T12:26:51.310Z,5.35
2017-01-26T12:27:51.333Z,5.1
2017-01-26T12:29:51.376Z,5.21
2017-01-26T12:30:51.381Z,5.3
2017-01-26T12:31:51.400Z,5.43
2017-01-26T12:32:51.478Z,5.4
2017-01-26T12:33:51.436Z,5.42
2017-01-26T12:34:51.451Z,5.35
2017-01-26T12:36:06.389Z,5.33
2017-01-26T12:36:51.521Z,5.24
2017-01-26T12:37:51.506Z,5.18
2017-01-26T12:38:51.523Z,5.13
2017-01-26T12:40:06.471Z,5.27
2017-01-26T12:40:51.559Z,5.28
2017-01-26T12:41:51.578Z,5.21
2017-01-26T12:42:51.602Z,5.33
2017-01-26T12:43:51.613Z,5.42
2017-01-26T12:45:06.552Z,5.39
2017-01-26T12:45:51.649Z,5.36
2017-01-26T12:46:51.665Z,5.21
2017-01-26T12:48:06.602Z,4.97
2017-01-26T12:48:51.703Z,4.96
2017-01-26T12:49:51.717Z,4.92
2017-01-26T12:50:51.742Z,4.99
2017-01-26T12:52:06.673Z,5.03
2017-01-26T12:52:51.774Z,5.07
2017-01-26T12:53:51.790Z,5.06
2017-01-26T12:54:51.807Z,4.91
2017-01-26T12:55:51.853Z,4.88
2017-01-26T12:56:51.841Z,4.88
2017-01-26T12:57:51.860Z,4.73
2017-01-26T12:58:51.878Z,4.7
2017-01-26T12:59:51.893Z,4.69
2017-01-26T13:00:51.912Z,4.58
2017-01-26T13:01:51.929Z,4.51
2017-01-26T13:02:51.946Z,4.44
2017-01-26T13:03:51.965Z,4.51
2017-01-26T13:04:51.982Z,4.51
2017-01-26T13:05:52.005Z,4.44
2017-01-26T13:06:52.017Z,4.32
2017-01-26T13:08:06.953Z,4.4
2017-01-26T13:08:52.051Z,4.37
2017-01-26T13:09:52.098Z,4.37
2017-01-26T13:10:52.083Z,4.32
2017-01-26T13:11:52.102Z,4.36
2017-01-26T13:12:52.144Z,4.4
2017-01-26T13:13:52.137Z,4.37
2017-01-26T13:14:52.155Z,4.36
2017-01-26T13:16:52.187Z,4.42
2017-01-26T13:17:52.212Z,4.45
2017-01-26T13:19:07.145Z,4.32
2017-01-26T13:19:52.240Z,4.4
2017-01-26T13:20:52.259Z,4.45
2017-01-26T13:21:52.272Z,4.52
2017-01-26T13:22:52.289Z,4.34
2017-01-26T13:24:07.227Z,4.3
2017-01-26T13:24:52.327Z,4.3
2017-01-26T13:25:52.377Z,4.34
2017-01-26T13:26:52.333Z,4.11
2017-01-26T13:27:53.149Z,4.14
2017-01-26T13:28:53.168Z,4.14
2017-01-26T13:29:53.180Z,4.04
2017-01-26T13:30:53.203Z,4.09
2017-01-26T13:31:52.830Z,4.14
2017-01-26T13:32:53.244Z,4.08
2017-01-26T13:34:07.783Z,4.04
2017-01-26T13:34:53.271Z,4.06
2017-01-26T13:35:53.289Z,4.06
2017-01-26T13:36:53.301Z,4
2017-01-26T13:37:53.320Z,4.02
2017-01-26T13:39:07.869Z,4.16
2017-01-26T13:39:53.352Z,4.08
2017-01-26T13:40:53.368Z,4.22
2017-01-26T13:41:53.001Z,4.15
2017-01-26T13:42:53.404Z,4.06
2017-01-26T13:43:53.424Z,4
2017-01-26T13:44:53.435Z,4.04
2017-01-26T13:45:53.453Z,4.06
2017-01-26T13:46:53.469Z,4.04
2017-01-26T13:48:08.020Z,4.05
2017-01-26T13:48:53.504Z,4.06
2017-01-26T13:49:53.525Z,4.05
2017-01-26T13:50:53.537Z,3.88
2017-01-26T13:51:53.562Z,3.79
2017-01-26T13:52:53.574Z,3.79
2017-01-26T13:53:53.207Z,3.76
2017-01-26T13:54:53.229Z,3.73
2017-01-26T13:55:53.236Z,3.72
2017-01-26T13:56:53.670Z,3.8
2017-01-26T13:57:53.656Z,3.86
2017-01-26T13:58:53.671Z,3.76
2017-01-26T13:59:53.690Z,3.7
2017-01-26T14:00:53.706Z,3.73
2017-01-26T14:01:53.337Z,3.73
2017-01-26T14:02:53.356Z,3.69
2017-01-26T14:03:53.758Z,3.7
2017-01-26T14:04:53.776Z,3.72
2017-01-26T14:05:53.791Z,3.7
2017-01-26T14:06:53.808Z,3.75
2017-01-26T14:07:53.828Z,3.84
2017-01-26T14:08:53.455Z,3.78
2017-01-26T14:09:53.862Z,3.79
2017-01-26T14:11:08.018Z,3.68